sensor_id;sensor_type;location;lat;lon;timestamp;temperature;humidity
42097;DHT22;27754;45.414;11.084;2023-11-21T00:00:04;9.20;87.10
42097;DHT22;27754;45.414;11.084;2023-11-21T00:02:38;9.30;87.20
42097;DHT22;27754;45.414;11.084;2023-11-21T00:05:11;9.30;87.20
42097;DHT22;27754;45.414;11.084;2023-11-21T00:07:40;9.20;87.60
42097;DHT22;27754;45.414;11.084;2023-11-21T00:10:08;9.20;87.60
42097;DHT22;27754;45.414;11.084;2023-11-21T00:12:37;9.20;87.80
42097;DHT22;27754;45.414;11.084;2023-11-21T00:15:04;9.20;87.70
42097;DHT22;27754;45.414;11.084;2023-11-21T00:17:32;9.20;87.60
42097;DHT22;27754;45.414;11.084;2023-11-21T00:19:59;9.30;87.30
42097;DHT22;27754;45.414;11.084;2023-11-21T00:22:26;9.20;87.10
42097;DHT22;27754;45.414;11.084;2023-11-21T00:24:53;9.30;86.90
42097;DHT22;27754;45.414;11.084;2023-11-21T00:27:20;9.10;87.10
42097;DHT22;27754;45.414;11.084;2023-11-21T00:29:47;9.20;87.20
42097;DHT22;27754;45.414;11.084;2023-11-21T00:32:14;9.20;86.80
42097;DHT22;27754;45.414;11.084;2023-11-21T00:34:41;9.20;86.90
42097;DHT22;27754;45.414;11.084;2023-11-21T00:37:09;9.20;87.10
42097;DHT22;27754;45.414;11.084;2023-11-21T00:39:36;9.20;87.20
42097;DHT22;27754;45.414;11.084;2023-11-21T00:42:03;9.20;87.40
42097;DHT22;27754;45.414;11.084;2023-11-21T00:44:31;9.30;87.40
42097;DHT22;27754;45.414;11.084;2023-11-21T00:46:58;9.30;87.10
42097;DHT22;27754;45.414;11.084;2023-11-21T00:49:25;9.20;86.90
42097;DHT22;27754;45.414;11.084;2023-11-21T00:51:52;9.10;86.80
42097;DHT22;27754;45.414;11.084;2023-11-21T00:54:19;9.10;86.80
42097;DHT22;27754;45.414;11.084;2023-11-21T00:56:46;9.20;87.00
42097;DHT22;27754;45.414;11.084;2023-11-21T00:59:16;9.20;87.00
42097;DHT22;27754;45.414;11.084;2023-11-21T01:01:43;9.20;87.10
42097;DHT22;27754;45.414;11.084;2023-11-21T01:04:11;9.30;87.30
42097;DHT22;27754;45.414;11.084;2023-11-21T01:06:38;9.20;87.20
42097;DHT22;27754;45.414;11.084;2023-11-21T01:09:05;9.30;87.10
42097;DHT22;27754;45.414;11.084;2023-11-21T01:11:36;9.30;86.70
42097;DHT22;27754;45.414;11.084;2023-11-21T01:14:04;9.30;86.50
42097;DHT22;27754;45.414;11.084;2023-11-21T01:16:31;9.30;86.90
42097;DHT22;27754;45.414;11.084;2023-11-21T01:18:59;9.20;87.00
42097;DHT22;27754;45.414;11.084;2023-11-21T01:21:26;9.20;86.90
42097;DHT22;27754;45.414;11.084;2023-11-21T01:23:54;9.20;86.90
42097;DHT22;27754;45.414;11.084;2023-11-21T01:26:22;9.30;87.00
42097;DHT22;27754;45.414;11.084;2023-11-21T01:28:49;9.30;87.10
42097;DHT22;27754;45.414;11.084;2023-11-21T01:31:16;9.30;87.30
42097;DHT22;27754;45.414;11.084;2023-11-21T01:33:43;9.30;87.40
42097;DHT22;27754;45.414;11.084;2023-11-21T01:36:10;9.30;87.90
42097;DHT22;27754;45.414;11.084;2023-11-21T01:38:37;9.20;88.00
42097;DHT22;27754;45.414;11.084;2023-11-21T01:41:05;9.30;88.10
42097;DHT22;27754;45.414;11.084;2023-11-21T01:43:33;9.20;88.10
42097;DHT22;27754;45.414;11.084;2023-11-21T01:46:00;9.20;88.20
42097;DHT22;27754;45.414;11.084;2023-11-21T01:48:28;9.30;88.10
42097;DHT22;27754;45.414;11.084;2023-11-21T01:50:55;9.30;88.10
42097;DHT22;27754;45.414;11.084;2023-11-21T01:53:26;9.30;88.10
42097;DHT22;27754;45.414;11.084;2023-11-21T01:55:55;9.30;88.10
42097;DHT22;27754;45.414;11.084;2023-11-21T01:58:25;9.40;88.10
42097;DHT22;27754;45.414;11.084;2023-11-21T02:00:53;9.40;87.90
42097;DHT22;27754;45.414;11.084;2023-11-21T02:03:22;9.40;88.00
42097;DHT22;27754;45.414;11.084;2023-11-21T02:05:49;9.40;87.80
42097;DHT22;27754;45.414;11.084;2023-11-21T02:08:16;9.40;87.70
42097;DHT22;27754;45.414;11.084;2023-11-21T02:10:43;9.40;87.50
42097;DHT22;27754;45.414;11.084;2023-11-21T02:13:10;9.40;87.70
42097;DHT22;27754;45.414;11.084;2023-11-21T02:15:38;9.40;87.40
42097;DHT22;27754;45.414;11.084;2023-11-21T02:18:05;9.30;87.50
42097;DHT22;27754;45.414;11.084;2023-11-21T02:20:33;9.40;87.30
42097;DHT22;27754;45.414;11.084;2023-11-21T02:23:03;9.30;87.00
42097;DHT22;27754;45.414;11.084;2023-11-21T02:25:32;9.40;86.80
42097;DHT22;27754;45.414;11.084;2023-11-21T02:28:02;9.40;86.70
42097;DHT22;27754;45.414;11.084;2023-11-21T02:30:30;9.40;86.70
42097;DHT22;27754;45.414;11.084;2023-11-21T02:33:00;9.30;86.80
42097;DHT22;27754;45.414;11.084;2023-11-21T02:35:27;9.40;86.80
42097;DHT22;27754;45.414;11.084;2023-11-21T02:37:54;9.40;87.00
42097;DHT22;27754;45.414;11.084;2023-11-21T02:40:22;9.30;87.20
42097;DHT22;27754;45.414;11.084;2023-11-21T02:42:51;9.30;87.30
42097;DHT22;27754;45.414;11.084;2023-11-21T02:45:20;9.30;87.40
42097;DHT22;27754;45.414;11.084;2023-11-21T02:47:48;9.20;87.40
42097;DHT22;27754;45.414;11.084;2023-11-21T02:50:20;9.30;87.40
42097;DHT22;27754;45.414;11.084;2023-11-21T02:52:50;9.20;87.60
42097;DHT22;27754;45.414;11.084;2023-11-21T02:55:19;9.20;87.70
42097;DHT22;27754;45.414;11.084;2023-11-21T02:57:46;9.20;87.70
42097;DHT22;27754;45.414;11.084;2023-11-21T03:00:13;9.20;87.90
42097;DHT22;27754;45.414;11.084;2023-11-21T03:02:42;9.20;88.00
42097;DHT22;27754;45.414;11.084;2023-11-21T03:05:10;9.20;88.20
42097;DHT22;27754;45.414;11.084;2023-11-21T03:07:38;9.20;88.20
42097;DHT22;27754;45.414;11.084;2023-11-21T03:10:08;9.20;88.10
42097;DHT22;27754;45.414;11.084;2023-11-21T03:12:39;9.20;87.90
42097;DHT22;27754;45.414;11.084;2023-11-21T03:15:07;9.20;88.00
42097;DHT22;27754;45.414;11.084;2023-11-21T03:17:35;9.20;88.10
42097;DHT22;27754;45.414;11.084;2023-11-21T03:20:03;9.20;88.10
42097;DHT22;27754;45.414;11.084;2023-11-21T03:22:31;9.20;88.00
42097;DHT22;27754;45.414;11.084;2023-11-21T03:24:58;9.20;88.10
42097;DHT22;27754;45.414;11.084;2023-11-21T03:27:26;9.20;88.20
42097;DHT22;27754;45.414;11.084;2023-11-21T03:29:53;9.20;88.10
42097;DHT22;27754;45.414;11.084;2023-11-21T03:32:21;9.20;88.20
42097;DHT22;27754;45.414;11.084;2023-11-21T03:34:57;9.20;88.20
42097;DHT22;27754;45.414;11.084;2023-11-21T03:37:25;9.20;88.10
42097;DHT22;27754;45.414;11.084;2023-11-21T03:39:55;9.20;88.10
42097;DHT22;27754;45.414;11.084;2023-11-21T03:42:23;9.20;88.10
42097;DHT22;27754;45.414;11.084;2023-11-21T03:44:52;9.20;88.10
42097;DHT22;27754;45.414;11.084;2023-11-21T03:47:20;9.10;88.10
42097;DHT22;27754;45.414;11.084;2023-11-21T03:49:47;9.10;88.20
42097;DHT22;27754;45.414;11.084;2023-11-21T03:52:16;9.10;88.30
42097;DHT22;27754;45.414;11.084;2023-11-21T03:54:43;9.10;88.40
42097;DHT22;27754;45.414;11.084;2023-11-21T03:57:10;9.00;88.60
42097;DHT22;27754;45.414;11.084;2023-11-21T03:59:41;9.00;88.70
42097;DHT22;27754;45.414;11.084;2023-11-21T04:02:09;9.00;88.90
42097;DHT22;27754;45.414;11.084;2023-11-21T04:04:36;8.90;89.00
42097;DHT22;27754;45.414;11.084;2023-11-21T04:07:03;8.90;89.00
42097;DHT22;27754;45.414;11.084;2023-11-21T04:09:31;8.80;89.00
42097;DHT22;27754;45.414;11.084;2023-11-21T04:11:58;8.70;89.30
42097;DHT22;27754;45.414;11.084;2023-11-21T04:14:25;8.70;89.30
42097;DHT22;27754;45.414;11.084;2023-11-21T04:16:52;8.70;89.30
42097;DHT22;27754;45.414;11.084;2023-11-21T04:19:20;8.60;89.40
42097;DHT22;27754;45.414;11.084;2023-11-21T04:21:47;8.60;89.40
42097;DHT22;27754;45.414;11.084;2023-11-21T04:24:15;8.50;89.30
42097;DHT22;27754;45.414;11.084;2023-11-21T04:26:43;8.40;89.50
42097;DHT22;27754;45.414;11.084;2023-11-21T04:29:10;8.40;89.90
42097;DHT22;27754;45.414;11.084;2023-11-21T04:31:37;8.40;89.90
42097;DHT22;27754;45.414;11.084;2023-11-21T04:34:05;8.50;89.30
42097;DHT22;27754;45.414;11.084;2023-11-21T04:36:32;8.50;89.50
42097;DHT22;27754;45.414;11.084;2023-11-21T04:38:58;8.50;89.60
42097;DHT22;27754;45.414;11.084;2023-11-21T04:41:26;8.60;89.50
42097;DHT22;27754;45.414;11.084;2023-11-21T04:43:53;8.50;89.60
42097;DHT22;27754;45.414;11.084;2023-11-21T04:46:20;8.40;89.80
42097;DHT22;27754;45.414;11.084;2023-11-21T04:48:47;8.40;89.90
42097;DHT22;27754;45.414;11.084;2023-11-21T04:51:14;8.40;90.00
42097;DHT22;27754;45.414;11.084;2023-11-21T04:53:41;8.30;90.00
42097;DHT22;27754;45.414;11.084;2023-11-21T04:56:08;8.20;90.00
42097;DHT22;27754;45.414;11.084;2023-11-21T04:58:35;8.10;90.20
42097;DHT22;27754;45.414;11.084;2023-11-21T05:01:02;8.20;90.30
42097;DHT22;27754;45.414;11.084;2023-11-21T05:03:34;8.10;90.40
42097;DHT22;27754;45.414;11.084;2023-11-21T05:06:01;8.00;90.70
42097;DHT22;27754;45.414;11.084;2023-11-21T05:08:29;8.00;90.70
42097;DHT22;27754;45.414;11.084;2023-11-21T05:10:56;7.90;90.80
42097;DHT22;27754;45.414;11.084;2023-11-21T05:13:23;7.90;90.90
42097;DHT22;27754;45.414;11.084;2023-11-21T05:15:55;7.90;90.90
42097;DHT22;27754;45.414;11.084;2023-11-21T05:18:23;7.90;90.90
42097;DHT22;27754;45.414;11.084;2023-11-21T05:20:53;7.80;91.00
42097;DHT22;27754;45.414;11.084;2023-11-21T05:23:20;7.80;90.90
42097;DHT22;27754;45.414;11.084;2023-11-21T05:25:48;7.80;90.90
42097;DHT22;27754;45.414;11.084;2023-11-21T05:28:15;7.80;91.00
42097;DHT22;27754;45.414;11.084;2023-11-21T05:30:42;7.60;90.70
42097;DHT22;27754;45.414;11.084;2023-11-21T05:33:09;7.60;90.80
42097;DHT22;27754;45.414;11.084;2023-11-21T05:35:36;7.40;91.00
42097;DHT22;27754;45.414;11.084;2023-11-21T05:38:03;7.50;91.30
42097;DHT22;27754;45.414;11.084;2023-11-21T05:40:32;7.50;91.10
42097;DHT22;27754;45.414;11.084;2023-11-21T05:42:59;7.40;91.30
42097;DHT22;27754;45.414;11.084;2023-11-21T05:45:26;7.40;91.40
42097;DHT22;27754;45.414;11.084;2023-11-21T05:47:55;7.50;91.20
42097;DHT22;27754;45.414;11.084;2023-11-21T05:50:22;7.40;90.90
42097;DHT22;27754;45.414;11.084;2023-11-21T05:52:50;7.40;90.80
42097;DHT22;27754;45.414;11.084;2023-11-21T05:55:17;7.40;90.60
42097;DHT22;27754;45.414;11.084;2023-11-21T05:57:44;7.40;90.60
42097;DHT22;27754;45.414;11.084;2023-11-21T06:00:13;7.40;90.50
42097;DHT22;27754;45.414;11.084;2023-11-21T06:02:49;7.50;90.60
42097;DHT22;27754;45.414;11.084;2023-11-21T06:05:19;7.40;90.60
42097;DHT22;27754;45.414;11.084;2023-11-21T06:07:46;7.40;90.50
42097;DHT22;27754;45.414;11.084;2023-11-21T06:10:13;7.40;90.60
42097;DHT22;27754;45.414;11.084;2023-11-21T06:12:41;7.40;90.60
42097;DHT22;27754;45.414;11.084;2023-11-21T06:15:11;7.40;90.50
42097;DHT22;27754;45.414;11.084;2023-11-21T06:17:42;7.40;90.70
42097;DHT22;27754;45.414;11.084;2023-11-21T06:20:10;7.40;90.90
42097;DHT22;27754;45.414;11.084;2023-11-21T06:22:42;7.40;90.80
42097;DHT22;27754;45.414;11.084;2023-11-21T06:25:11;7.40;90.80
42097;DHT22;27754;45.414;11.084;2023-11-21T06:27:44;7.30;89.90
42097;DHT22;27754;45.414;11.084;2023-11-21T06:30:13;7.30;90.10
42097;DHT22;27754;45.414;11.084;2023-11-21T06:32:41;7.30;90.40
42097;DHT22;27754;45.414;11.084;2023-11-21T06:35:09;7.30;90.50
42097;DHT22;27754;45.414;11.084;2023-11-21T06:37:37;7.30;90.50
42097;DHT22;27754;45.414;11.084;2023-11-21T06:40:05;7.40;90.40
42097;DHT22;27754;45.414;11.084;2023-11-21T06:42:33;7.40;90.40
42097;DHT22;27754;45.414;11.084;2023-11-21T06:45:05;7.40;90.30
42097;DHT22;27754;45.414;11.084;2023-11-21T06:47:32;7.50;89.60
42097;DHT22;27754;45.414;11.084;2023-11-21T06:50:00;7.50;89.20
42097;DHT22;27754;45.414;11.084;2023-11-21T06:52:27;7.60;89.00
42097;DHT22;27754;45.414;11.084;2023-11-21T06:54:54;7.60;88.70
42097;DHT22;27754;45.414;11.084;2023-11-21T06:57:23;7.60;89.30
42097;DHT22;27754;45.414;11.084;2023-11-21T06:59:50;7.50;89.30
42097;DHT22;27754;45.414;11.084;2023-11-21T07:02:17;7.60;89.10
42097;DHT22;27754;45.414;11.084;2023-11-21T07:04:46;7.60;89.10
42097;DHT22;27754;45.414;11.084;2023-11-21T07:07:13;7.60;89.10
42097;DHT22;27754;45.414;11.084;2023-11-21T07:09:40;7.70;89.30
42097;DHT22;27754;45.414;11.084;2023-11-21T07:12:07;7.70;89.30
42097;DHT22;27754;45.414;11.084;2023-11-21T07:14:35;7.70;89.00
42097;DHT22;27754;45.414;11.084;2023-11-21T07:17:02;7.70;89.10
42097;DHT22;27754;45.414;11.084;2023-11-21T07:19:29;7.70;89.00
42097;DHT22;27754;45.414;11.084;2023-11-21T07:21:56;7.80;89.00
42097;DHT22;27754;45.414;11.084;2023-11-21T07:24:23;7.80;89.20
42097;DHT22;27754;45.414;11.084;2023-11-21T07:26:53;7.80;89.00
42097;DHT22;27754;45.414;11.084;2023-11-21T07:29:24;7.90;88.80
42097;DHT22;27754;45.414;11.084;2023-11-21T07:31:53;7.90;89.00
42097;DHT22;27754;45.414;11.084;2023-11-21T07:34:21;8.00;88.90
42097;DHT22;27754;45.414;11.084;2023-11-21T07:36:48;8.00;88.40
42097;DHT22;27754;45.414;11.084;2023-11-21T07:39:15;8.00;88.50
42097;DHT22;27754;45.414;11.084;2023-11-21T07:41:43;8.10;88.50
42097;DHT22;27754;45.414;11.084;2023-11-21T07:44:18;8.00;88.60
42097;DHT22;27754;45.414;11.084;2023-11-21T07:46:47;8.10;88.70
42097;DHT22;27754;45.414;11.084;2023-11-21T07:49:14;8.10;88.80
42097;DHT22;27754;45.414;11.084;2023-11-21T07:51:43;8.00;88.60
42097;DHT22;27754;45.414;11.084;2023-11-21T07:54:11;8.10;88.70
42097;DHT22;27754;45.414;11.084;2023-11-21T07:56:38;8.20;88.80
42097;DHT22;27754;45.414;11.084;2023-11-21T07:59:05;8.20;88.20
42097;DHT22;27754;45.414;11.084;2023-11-21T08:01:32;8.10;88.20
42097;DHT22;27754;45.414;11.084;2023-11-21T08:04:00;8.20;88.30
42097;DHT22;27754;45.414;11.084;2023-11-21T08:06:31;8.20;88.20
42097;DHT22;27754;45.414;11.084;2023-11-21T08:08:58;8.20;88.30
42097;DHT22;27754;45.414;11.084;2023-11-21T08:11:25;8.30;88.30
42097;DHT22;27754;45.414;11.084;2023-11-21T08:13:56;8.30;88.10
42097;DHT22;27754;45.414;11.084;2023-11-21T08:16:24;8.30;88.60
42097;DHT22;27754;45.414;11.084;2023-11-21T08:18:51;8.40;88.70
42097;DHT22;27754;45.414;11.084;2023-11-21T08:21:18;8.40;88.60
42097;DHT22;27754;45.414;11.084;2023-11-21T08:23:46;8.40;88.60
42097;DHT22;27754;45.414;11.084;2023-11-21T08:26:16;8.60;88.50
42097;DHT22;27754;45.414;11.084;2023-11-21T08:28:45;8.60;88.40
42097;DHT22;27754;45.414;11.084;2023-11-21T08:31:12;8.80;87.70
42097;DHT22;27754;45.414;11.084;2023-11-21T08:33:41;8.90;87.40
42097;DHT22;27754;45.414;11.084;2023-11-21T08:36:09;8.90;87.40
42097;DHT22;27754;45.414;11.084;2023-11-21T08:38:37;9.00;87.10
42097;DHT22;27754;45.414;11.084;2023-11-21T08:41:06;9.20;86.90
42097;DHT22;27754;45.414;11.084;2023-11-21T08:43:36;9.30;87.00
42097;DHT22;27754;45.414;11.084;2023-11-21T08:46:07;9.30;86.70
42097;DHT22;27754;45.414;11.084;2023-11-21T08:48:36;9.50;86.20
42097;DHT22;27754;45.414;11.084;2023-11-21T08:51:04;9.60;85.30
42097;DHT22;27754;45.414;11.084;2023-11-21T08:53:31;9.70;85.10
42097;DHT22;27754;45.414;11.084;2023-11-21T08:55:59;9.80;84.40
42097;DHT22;27754;45.414;11.084;2023-11-21T08:58:27;9.90;84.00
42097;DHT22;27754;45.414;11.084;2023-11-21T09:00:54;9.90;84.00
42097;DHT22;27754;45.414;11.084;2023-11-21T09:03:21;10.00;84.30
42097;DHT22;27754;45.414;11.084;2023-11-21T09:05:48;10.10;84.10
42097;DHT22;27754;45.414;11.084;2023-11-21T09:08:16;10.10;84.20
42097;DHT22;27754;45.414;11.084;2023-11-21T09:10:43;10.20;84.50
42097;DHT22;27754;45.414;11.084;2023-11-21T09:13:13;10.20;83.90
42097;DHT22;27754;45.414;11.084;2023-11-21T09:15:43;10.20;83.60
42097;DHT22;27754;45.414;11.084;2023-11-21T09:18:15;10.30;83.00
42097;DHT22;27754;45.414;11.084;2023-11-21T09:20:42;10.20;82.10
42097;DHT22;27754;45.414;11.084;2023-11-21T09:23:11;10.30;82.30
42097;DHT22;27754;45.414;11.084;2023-11-21T09:25:38;10.40;82.50
42097;DHT22;27754;45.414;11.084;2023-11-21T09:28:05;10.50;82.70
42097;DHT22;27754;45.414;11.084;2023-11-21T09:30:36;10.60;83.00
42097;DHT22;27754;45.414;11.084;2023-11-21T09:33:03;10.60;83.50
42097;DHT22;27754;45.414;11.084;2023-11-21T09:35:35;10.70;83.80
42097;DHT22;27754;45.414;11.084;2023-11-21T09:38:02;10.70;83.80
42097;DHT22;27754;45.414;11.084;2023-11-21T09:40:32;10.60;84.00
42097;DHT22;27754;45.414;11.084;2023-11-21T09:43:00;10.50;84.40
42097;DHT22;27754;45.414;11.084;2023-11-21T09:45:34;10.40;85.40
42097;DHT22;27754;45.414;11.084;2023-11-21T09:48:01;10.40;85.30
42097;DHT22;27754;45.414;11.084;2023-11-21T09:50:29;10.30;86.00
42097;DHT22;27754;45.414;11.084;2023-11-21T09:53:18;10.20;86.50
42097;DHT22;27754;45.414;11.084;2023-11-21T09:55:50;10.10;86.40
42097;DHT22;27754;45.414;11.084;2023-11-21T09:58:19;10.10;86.30
42097;DHT22;27754;45.414;11.084;2023-11-21T10:00:52;10.10;86.50
42097;DHT22;27754;45.414;11.084;2023-11-21T10:03:20;10.20;86.00
42097;DHT22;27754;45.414;11.084;2023-11-21T10:05:48;10.20;85.50
42097;DHT22;27754;45.414;11.084;2023-11-21T10:08:17;10.30;85.80
42097;DHT22;27754;45.414;11.084;2023-11-21T10:10:49;10.40;85.10
42097;DHT22;27754;45.414;11.084;2023-11-21T10:13:18;10.50;84.80
42097;DHT22;27754;45.414;11.084;2023-11-21T10:15:50;10.50;84.40
42097;DHT22;27754;45.414;11.084;2023-11-21T10:18:18;10.50;84.40
42097;DHT22;27754;45.414;11.084;2023-11-21T10:20:45;10.70;84.70
42097;DHT22;27754;45.414;11.084;2023-11-21T10:23:20;10.70;84.20
42097;DHT22;27754;45.414;11.084;2023-11-21T10:25:51;10.80;84.00
42097;DHT22;27754;45.414;11.084;2023-11-21T10:28:19;10.80;84.00
42097;DHT22;27754;45.414;11.084;2023-11-21T10:30:47;10.70;84.20
42097;DHT22;27754;45.414;11.084;2023-11-21T10:33:15;10.70;84.20
42097;DHT22;27754;45.414;11.084;2023-11-21T10:35:48;10.70;84.30
42097;DHT22;27754;45.414;11.084;2023-11-21T10:38:21;10.70;84.10
42097;DHT22;27754;45.414;11.084;2023-11-21T10:40:51;10.70;83.90
42097;DHT22;27754;45.414;11.084;2023-11-21T10:43:19;10.60;83.60
42097;DHT22;27754;45.414;11.084;2023-11-21T10:45:46;10.60;83.70
42097;DHT22;27754;45.414;11.084;2023-11-21T10:48:14;10.50;83.70
42097;DHT22;27754;45.414;11.084;2023-11-21T10:50:46;10.60;83.90
42097;DHT22;27754;45.414;11.084;2023-11-21T10:53:14;10.50;83.60
42097;DHT22;27754;45.414;11.084;2023-11-21T10:55:42;10.40;83.60
42097;DHT22;27754;45.414;11.084;2023-11-21T10:58:13;10.40;83.80
42097;DHT22;27754;45.414;11.084;2023-11-21T11:00:41;10.50;83.80
42097;DHT22;27754;45.414;11.084;2023-11-21T11:03:10;10.50;84.20
42097;DHT22;27754;45.414;11.084;2023-11-21T11:05:46;10.50;84.30
42097;DHT22;27754;45.414;11.084;2023-11-21T11:08:21;10.40;84.30
42097;DHT22;27754;45.414;11.084;2023-11-21T11:10:53;10.40;84.60
42097;DHT22;27754;45.414;11.084;2023-11-21T11:13:21;10.30;84.60
42097;DHT22;27754;45.414;11.084;2023-11-21T11:15:48;10.30;84.90
42097;DHT22;27754;45.414;11.084;2023-11-21T11:18:19;10.30;85.00
42097;DHT22;27754;45.414;11.084;2023-11-21T11:20:49;10.30;84.90
42097;DHT22;27754;45.414;11.084;2023-11-21T11:29:23;10.40;85.00
42097;DHT22;27754;45.414;11.084;2023-11-21T11:35:17;10.40;85.10
42097;DHT22;27754;45.414;11.084;2023-11-21T11:37:46;10.40;84.90
42097;DHT22;27754;45.414;11.084;2023-11-21T11:40:14;10.40;85.10
42097;DHT22;27754;45.414;11.084;2023-11-21T11:43:02;10.40;85.20
42097;DHT22;27754;45.414;11.084;2023-11-21T11:45:33;10.50;85.20
42097;DHT22;27754;45.414;11.084;2023-11-21T11:48:01;10.40;85.10
42097;DHT22;27754;45.414;11.084;2023-11-21T11:50:29;10.40;85.50
42097;DHT22;27754;45.414;11.084;2023-11-21T11:53:12;10.40;85.30
42097;DHT22;27754;45.414;11.084;2023-11-21T11:55:40;10.40;85.40
42097;DHT22;27754;45.414;11.084;2023-11-21T11:58:08;10.50;85.40
42097;DHT22;27754;45.414;11.084;2023-11-21T12:00:35;10.60;85.30
42097;DHT22;27754;45.414;11.084;2023-11-21T12:03:08;10.60;85.40
42097;DHT22;27754;45.414;11.084;2023-11-21T12:05:36;10.60;85.50
42097;DHT22;27754;45.414;11.084;2023-11-21T12:08:06;10.70;85.40
42097;DHT22;27754;45.414;11.084;2023-11-21T12:10:36;10.70;85.50
42097;DHT22;27754;45.414;11.084;2023-11-21T12:13:08;10.80;85.60
42097;DHT22;27754;45.414;11.084;2023-11-21T12:15:35;10.80;85.50
42097;DHT22;27754;45.414;11.084;2023-11-21T12:18:04;10.90;85.30
42097;DHT22;27754;45.414;11.084;2023-11-21T12:20:32;10.90;85.20
42097;DHT22;27754;45.414;11.084;2023-11-21T12:23:05;10.90;85.40
42097;DHT22;27754;45.414;11.084;2023-11-21T12:25:33;11.00;85.60
42097;DHT22;27754;45.414;11.084;2023-11-21T12:28:01;11.10;85.60
42097;DHT22;27754;45.414;11.084;2023-11-21T12:30:32;11.20;85.50
42097;DHT22;27754;45.414;11.084;2023-11-21T12:33:02;11.10;85.70
42097;DHT22;27754;45.414;11.084;2023-11-21T12:35:33;11.20;85.90
42097;DHT22;27754;45.414;11.084;2023-11-21T12:38:04;11.40;85.60
42097;DHT22;27754;45.414;11.084;2023-11-21T12:40:36;11.50;85.50
42097;DHT22;27754;45.414;11.084;2023-11-21T12:43:03;11.70;84.80
42097;DHT22;27754;45.414;11.084;2023-11-21T12:45:32;11.90;83.80
42097;DHT22;27754;45.414;11.084;2023-11-21T12:48:04;11.90;82.40
42097;DHT22;27754;45.414;11.084;2023-11-21T12:50:36;12.10;81.70
42097;DHT22;27754;45.414;11.084;2023-11-21T12:53:09;12.20;81.50
42097;DHT22;27754;45.414;11.084;2023-11-21T12:55:39;12.30;81.40
42097;DHT22;27754;45.414;11.084;2023-11-21T12:58:08;12.50;80.70
42097;DHT22;27754;45.414;11.084;2023-11-21T13:00:42;12.60;80.20
42097;DHT22;27754;45.414;11.084;2023-11-21T13:03:11;12.60;80.20
42097;DHT22;27754;45.414;11.084;2023-11-21T13:05:40;12.70;80.20
42097;DHT22;27754;45.414;11.084;2023-11-21T13:08:19;12.70;79.90
42097;DHT22;27754;45.414;11.084;2023-11-21T13:10:53;12.70;79.90
42097;DHT22;27754;45.414;11.084;2023-11-21T13:13:23;12.70;80.00
42097;DHT22;27754;45.414;11.084;2023-11-21T13:15:56;12.60;80.20
42097;DHT22;27754;45.414;11.084;2023-11-21T13:18:24;12.60;80.10
42097;DHT22;27754;45.414;11.084;2023-11-21T13:20:58;12.80;79.80
42097;DHT22;27754;45.414;11.084;2023-11-21T13:23:26;12.70;80.20
42097;DHT22;27754;45.414;11.084;2023-11-21T13:25:54;12.90;79.60
42097;DHT22;27754;45.414;11.084;2023-11-21T13:28:31;13.00;77.80
42097;DHT22;27754;45.414;11.084;2023-11-21T13:31:01;13.20;77.90
42097;DHT22;27754;45.414;11.084;2023-11-21T13:33:38;13.20;77.60
42097;DHT22;27754;45.414;11.084;2023-11-21T13:36:08;13.20;77.30
42097;DHT22;27754;45.414;11.084;2023-11-21T13:38:37;13.20;77.40
42097;DHT22;27754;45.414;11.084;2023-11-21T13:41:08;13.20;77.10
42097;DHT22;27754;45.414;11.084;2023-11-21T13:43:37;13.10;77.00
42097;DHT22;27754;45.414;11.084;2023-11-21T13:46:05;13.10;76.90
42097;DHT22;27754;45.414;11.084;2023-11-21T13:48:44;13.10;76.70
42097;DHT22;27754;45.414;11.084;2023-11-21T13:51:18;13.10;77.20
42097;DHT22;27754;45.414;11.084;2023-11-21T13:53:46;13.10;76.50
42097;DHT22;27754;45.414;11.084;2023-11-21T13:56:16;13.10;76.30
42097;DHT22;27754;45.414;11.084;2023-11-21T13:58:47;13.10;76.40
42097;DHT22;27754;45.414;11.084;2023-11-21T14:01:19;13.10;76.30
42097;DHT22;27754;45.414;11.084;2023-11-21T14:04:00;13.20;76.50
42097;DHT22;27754;45.414;11.084;2023-11-21T14:06:49;13.10;76.20
42097;DHT22;27754;45.414;11.084;2023-11-21T14:09:20;13.20;76.30
42097;DHT22;27754;45.414;11.084;2023-11-21T14:11:53;13.10;76.30
42097;DHT22;27754;45.414;11.084;2023-11-21T14:14:23;13.20;76.20
42097;DHT22;27754;45.414;11.084;2023-11-21T14:16:52;13.20;75.70
42097;DHT22;27754;45.414;11.084;2023-11-21T14:19:19;13.30;75.10
42097;DHT22;27754;45.414;11.084;2023-11-21T14:21:47;13.30;74.60
42097;DHT22;27754;45.414;11.084;2023-11-21T14:24:17;13.40;74.40
42097;DHT22;27754;45.414;11.084;2023-11-21T14:26:46;13.40;74.40
42097;DHT22;27754;45.414;11.084;2023-11-21T14:29:15;13.40;74.60
42097;DHT22;27754;45.414;11.084;2023-11-21T14:31:47;13.40;74.40
42097;DHT22;27754;45.414;11.084;2023-11-21T14:34:15;13.40;73.80
42097;DHT22;27754;45.414;11.084;2023-11-21T14:36:47;13.40;73.60
42097;DHT22;27754;45.414;11.084;2023-11-21T14:39:16;13.40;74.20
42097;DHT22;27754;45.414;11.084;2023-11-21T14:41:50;13.30;74.40
42097;DHT22;27754;45.414;11.084;2023-11-21T14:44:19;13.30;74.20
42097;DHT22;27754;45.414;11.084;2023-11-21T14:46:48;13.30;74.40
42097;DHT22;27754;45.414;11.084;2023-11-21T14:49:17;13.30;74.70
42097;DHT22;27754;45.414;11.084;2023-11-21T14:51:51;13.20;74.90
42097;DHT22;27754;45.414;11.084;2023-11-21T14:54:24;13.20;75.10
42097;DHT22;27754;45.414;11.084;2023-11-21T14:57:10;13.30;74.70
42097;DHT22;27754;45.414;11.084;2023-11-21T14:59:49;13.20;75.00
42097;DHT22;27754;45.414;11.084;2023-11-21T15:02:19;13.20;74.90
42097;DHT22;27754;45.414;11.084;2023-11-21T15:05:09;13.10;75.10
42097;DHT22;27754;45.414;11.084;2023-11-21T15:07:43;13.20;75.10
42097;DHT22;27754;45.414;11.084;2023-11-21T15:10:13;13.10;75.30
42097;DHT22;27754;45.414;11.084;2023-11-21T15:12:43;13.10;75.70
42097;DHT22;27754;45.414;11.084;2023-11-21T15:15:11;13.00;75.80
42097;DHT22;27754;45.414;11.084;2023-11-21T15:17:38;12.90;76.00
42097;DHT22;27754;45.414;11.084;2023-11-21T15:20:10;12.90;75.90
42097;DHT22;27754;45.414;11.084;2023-11-21T15:22:39;12.90;76.30
42097;DHT22;27754;45.414;11.084;2023-11-21T15:25:07;12.80;76.20
42097;DHT22;27754;45.414;11.084;2023-11-21T15:27:37;12.90;75.80
42097;DHT22;27754;45.414;11.084;2023-11-21T15:30:05;12.90;75.00
42097;DHT22;27754;45.414;11.084;2023-11-21T15:32:32;12.90;74.60
42097;DHT22;27754;45.414;11.084;2023-11-21T15:34:59;12.90;74.50
42097;DHT22;27754;45.414;11.084;2023-11-21T15:37:26;12.90;74.50
42097;DHT22;27754;45.414;11.084;2023-11-21T15:39:55;12.90;74.00
42097;DHT22;27754;45.414;11.084;2023-11-21T15:42:22;12.90;74.10
42097;DHT22;27754;45.414;11.084;2023-11-21T15:44:50;12.90;73.90